sensor_id;sensor_type;location;lat;lon;timestamp;pressure;altitude;pressure_sealevel;temperature;humidity
78206;BME280;67480;48.920;12.880;2023-02-28T00:00:20;97765.00;;;-1.51;47.13
78206;BME280;67480;48.920;12.880;2023-02-28T00:02:46;97758.44;;;-1.67;47.15
78206;BME280;67480;48.920;12.880;2023-02-28T00:05:14;97765.47;;;-1.61;47.41
78206;BME280;67480;48.920;12.880;2023-02-28T00:07:39;97757.88;;;-1.75;47.18
78206;BME280;67480;48.920;12.880;2023-02-28T00:10:06;97756.66;;;-1.73;47.01
78206;BME280;67480;48.920;12.880;2023-02-28T00:12:36;97754.56;;;-1.64;47.29
78206;BME280;67480;48.920;12.880;2023-02-28T00:15:04;97747.97;;;-1.80;47.34
78206;BME280;67480;48.920;12.880;2023-02-28T00:17:30;97748.03;;;-1.87;46.92
78206;BME280;67480;48.920;12.880;2023-02-28T00:19:55;97749.31;;;-1.71;46.77
78206;BME280;67480;48.920;12.880;2023-02-28T00:22:21;97741.03;;;-1.74;47.43
78206;BME280;67480;48.920;12.880;2023-02-28T00:24:46;97736.94;;;-1.70;47.36
78206;BME280;67480;48.920;12.880;2023-02-28T00:27:13;97736.22;;;-1.59;46.99
78206;BME280;67480;48.920;12.880;2023-02-28T00:29:38;97734.41;;;-1.59;47.14
78206;BME280;67480;48.920;12.880;2023-02-28T00:32:05;97736.50;;;-1.67;47.39
78206;BME280;67480;48.920;12.880;2023-02-28T00:34:31;97737.00;;;-1.77;47.46
78206;BME280;67480;48.920;12.880;2023-02-28T00:36:56;97736.72;;;-1.94;46.92
78206;BME280;67480;48.920;12.880;2023-02-28T00:39:21;97735.13;;;-1.70;47.42
78206;BME280;67480;48.920;12.880;2023-02-28T00:41:47;97732.91;;;-1.73;46.88
78206;BME280;67480;48.920;12.880;2023-02-28T00:44:12;97733.06;;;-1.68;46.84
78206;BME280;67480;48.920;12.880;2023-02-28T00:46:37;97739.25;;;-1.81;47.65
78206;BME280;67480;48.920;12.880;2023-02-28T00:49:03;97729.00;;;-1.70;47.23
78206;BME280;67480;48.920;12.880;2023-02-28T00:51:28;97725.78;;;-1.72;47.24
78206;BME280;67480;48.920;12.880;2023-02-28T00:53:54;97731.56;;;-1.82;47.29
78206;BME280;67480;48.920;12.880;2023-02-28T00:56:20;97719.41;;;-1.90;48.41
78206;BME280;67480;48.920;12.880;2023-02-28T00:58:45;97708.84;;;-1.83;46.92
78206;BME280;67480;48.920;12.880;2023-02-28T01:01:11;97708.72;;;-1.70;46.16
78206;BME280;67480;48.920;12.880;2023-02-28T01:03:36;97704.69;;;-1.72;46.94
78206;BME280;67480;48.920;12.880;2023-02-28T01:06:01;97706.09;;;-1.70;47.66
78206;BME280;67480;48.920;12.880;2023-02-28T01:08:27;97705.81;;;-1.87;48.11
78206;BME280;67480;48.920;12.880;2023-02-28T01:10:53;97708.59;;;-1.82;47.63
78206;BME280;67480;48.920;12.880;2023-02-28T01:13:19;97710.75;;;-1.72;47.75
78206;BME280;67480;48.920;12.880;2023-02-28T01:15:52;97701.63;;;-1.69;47.79
78206;BME280;67480;48.920;12.880;2023-02-28T01:18:20;97711.38;;;-1.70;47.63
78206;BME280;67480;48.920;12.880;2023-02-28T01:20:46;97705.31;;;-1.77;48.03
78206;BME280;67480;48.920;12.880;2023-02-28T01:23:12;97709.31;;;-1.68;47.71
78206;BME280;67480;48.920;12.880;2023-02-28T01:25:38;97695.66;;;-1.83;47.74
78206;BME280;67480;48.920;12.880;2023-02-28T01:28:04;97701.72;;;-1.83;48.65
78206;BME280;67480;48.920;12.880;2023-02-28T01:30:30;97697.47;;;-1.84;48.20
78206;BME280;67480;48.920;12.880;2023-02-28T01:32:56;97699.31;;;-1.84;48.70
78206;BME280;67480;48.920;12.880;2023-02-28T01:35:21;97694.06;;;-1.91;49.15
78206;BME280;67480;48.920;12.880;2023-02-28T01:37:46;97688.44;;;-1.94;48.49
78206;BME280;67480;48.920;12.880;2023-02-28T01:40:12;97674.69;;;-2.03;48.24
78206;BME280;67480;48.920;12.880;2023-02-28T01:42:38;97683.41;;;-2.03;49.04
78206;BME280;67480;48.920;12.880;2023-02-28T01:47:35;97682.38;;;-2.02;48.72
78206;BME280;67480;48.920;12.880;2023-02-28T01:50:04;97682.38;;;-2.02;48.81
78206;BME280;67480;48.920;12.880;2023-02-28T01:52:31;97679.59;;;-2.07;48.75
78206;BME280;67480;48.920;12.880;2023-02-28T01:54:58;97673.34;;;-2.12;48.50
78206;BME280;67480;48.920;12.880;2023-02-28T01:57:29;97673.72;;;-2.09;48.41
78206;BME280;67480;48.920;12.880;2023-02-28T02:00:03;97674.94;;;-2.11;48.46
78206;BME280;67480;48.920;12.880;2023-02-28T02:02:30;97675.31;;;-2.08;48.54
78206;BME280;67480;48.920;12.880;2023-02-28T02:05:05;97681.25;;;-2.12;48.26
78206;BME280;67480;48.920;12.880;2023-02-28T02:07:33;97677.38;;;-2.10;48.47
78206;BME280;67480;48.920;12.880;2023-02-28T02:10:13;97666.97;;;-2.05;48.74
78206;BME280;67480;48.920;12.880;2023-02-28T02:32:54;97673.97;;;-2.17;48.03
78206;BME280;67480;48.920;12.880;2023-02-28T02:38:18;97680.44;;;-2.13;47.61
78206;BME280;67480;48.920;12.880;2023-02-28T02:41:05;97681.06;;;-2.18;47.74
78206;BME280;67480;48.920;12.880;2023-02-28T02:43:40;97676.56;;;-2.10;47.91
78206;BME280;67480;48.920;12.880;2023-02-28T02:46:16;97690.06;;;-2.25;48.20
78206;BME280;67480;48.920;12.880;2023-02-28T02:48:43;97682.56;;;-2.28;48.53
78206;BME280;67480;48.920;12.880;2023-02-28T02:51:16;97687.81;;;-2.22;48.21
78206;BME280;67480;48.920;12.880;2023-02-28T02:53:47;97690.19;;;-2.14;48.52
78206;BME280;67480;48.920;12.880;2023-02-28T02:56:17;97683.91;;;-2.19;48.52
78206;BME280;67480;48.920;12.880;2023-02-28T02:58:47;97689.03;;;-2.24;48.34
78206;BME280;67480;48.920;12.880;2023-02-28T03:01:18;97686.25;;;-2.36;48.34
78206;BME280;67480;48.920;12.880;2023-02-28T03:03:54;97689.66;;;-2.29;48.37
78206;BME280;67480;48.920;12.880;2023-02-28T03:06:20;97690.44;;;-2.22;48.54
78206;BME280;67480;48.920;12.880;2023-02-28T03:08:46;97690.22;;;-2.20;48.46
78206;BME280;67480;48.920;12.880;2023-02-28T03:11:13;97694.56;;;-2.33;48.49
78206;BME280;67480;48.920;12.880;2023-02-28T03:16:14;97697.34;;;-2.27;48.46
78206;BME280;67480;48.920;12.880;2023-02-28T03:19:02;97695.59;;;-2.34;48.24
78206;BME280;67480;48.920;12.880;2023-02-28T03:24:39;97692.97;;;-2.40;49.07
78206;BME280;67480;48.920;12.880;2023-02-28T03:27:16;97695.81;;;-2.35;49.11
78206;BME280;67480;48.920;12.880;2023-02-28T03:29:55;97686.47;;;-2.38;49.35
78206;BME280;67480;48.920;12.880;2023-02-28T03:32:33;97696.44;;;-2.40;48.81
78206;BME280;67480;48.920;12.880;2023-02-28T03:35:14;97687.94;;;-2.42;49.14
78206;BME280;67480;48.920;12.880;2023-02-28T03:38:11;97690.13;;;-2.39;48.99
78206;BME280;67480;48.920;12.880;2023-02-28T03:40:36;97688.56;;;-2.46;48.86
78206;BME280;67480;48.920;12.880;2023-02-28T03:43:08;97687.94;;;-2.48;48.92
78206;BME280;67480;48.920;12.880;2023-02-28T03:45:36;97683.13;;;-2.52;49.51
78206;BME280;67480;48.920;12.880;2023-02-28T03:50:37;97679.38;;;-2.37;49.21
78206;BME280;67480;48.920;12.880;2023-02-28T03:53:21;97677.16;;;-2.40;49.41
78206;BME280;67480;48.920;12.880;2023-02-28T03:55:50;97682.66;;;-2.42;48.97
78206;BME280;67480;48.920;12.880;2023-02-28T04:00:55;97682.88;;;-2.43;48.37
78206;BME280;67480;48.920;12.880;2023-02-28T04:03:22;97693.00;;;-2.47;48.77
78206;BME280;67480;48.920;12.880;2023-02-28T04:05:53;97685.50;;;-2.43;49.27
78206;BME280;67480;48.920;12.880;2023-02-28T04:08:20;97685.06;;;-2.40;49.05
78206;BME280;67480;48.920;12.880;2023-02-28T04:10:50;97690.78;;;-2.43;49.12
78206;BME280;67480;48.920;12.880;2023-02-28T04:13:18;97687.94;;;-2.48;49.17
78206;BME280;67480;48.920;12.880;2023-02-28T04:15:43;97684.84;;;-2.39;49.71
78206;BME280;67480;48.920;12.880;2023-02-28T04:18:08;97686.00;;;-2.28;49.54
78206;BME280;67480;48.920;12.880;2023-02-28T04:20:34;97694.75;;;-2.34;49.70
78206;BME280;67480;48.920;12.880;2023-02-28T04:22:59;97692.22;;;-2.47;50.60
78206;BME280;67480;48.920;12.880;2023-02-28T04:25:24;97692.81;;;-2.45;50.64
78206;BME280;67480;48.920;12.880;2023-02-28T04:27:50;97694.38;;;-2.38;50.78
78206;BME280;67480;48.920;12.880;2023-02-28T04:30:15;97696.50;;;-2.53;51.02
78206;BME280;67480;48.920;12.880;2023-02-28T04:32:40;97702.50;;;-2.39;50.90
78206;BME280;67480;48.920;12.880;2023-02-28T04:35:06;97697.22;;;-2.39;50.23
78206;BME280;67480;48.920;12.880;2023-02-28T04:37:32;97691.03;;;-2.52;50.90
78206;BME280;67480;48.920;12.880;2023-02-28T04:40:00;97689.63;;;-2.54;50.44
78206;BME280;67480;48.920;12.880;2023-02-28T04:42:26;97687.94;;;-2.42;50.47
78206;BME280;67480;48.920;12.880;2023-02-28T04:44:51;97691.59;;;-2.43;50.50
78206;BME280;67480;48.920;12.880;2023-02-28T04:47:17;97691.41;;;-2.48;50.56
78206;BME280;67480;48.920;12.880;2023-02-28T04:49:42;97687.34;;;-2.51;50.77
78206;BME280;67480;48.920;12.880;2023-02-28T04:52:07;97691.81;;;-2.51;49.93
78206;BME280;67480;48.920;12.880;2023-02-28T04:54:35;97691.03;;;-2.52;50.49
78206;BME280;67480;48.920;12.880;2023-02-28T04:57:00;97682.09;;;-2.51;50.15
78206;BME280;67480;48.920;12.880;2023-02-28T04:59:26;97681.38;;;-2.64;50.43
78206;BME280;67480;48.920;12.880;2023-02-28T05:01:51;97678.28;;;-2.55;49.57
78206;BME280;67480;48.920;12.880;2023-02-28T05:04:17;97682.25;;;-2.45;49.42
78206;BME280;67480;48.920;12.880;2023-02-28T05:06:42;97688.31;;;-2.38;49.56
78206;BME280;67480;48.920;12.880;2023-02-28T05:09:07;97685.06;;;-2.40;49.52
78206;BME280;67480;48.920;12.880;2023-02-28T05:11:34;97685.75;;;-2.52;49.15
78206;BME280;67480;48.920;12.880;2023-02-28T05:14:05;97682.69;;;-2.48;49.56
78206;BME280;67480;48.920;12.880;2023-02-28T05:16:32;97690.16;;;-2.45;49.29
78206;BME280;67480;48.920;12.880;2023-02-28T05:18:57;97682.69;;;-2.48;49.55
78206;BME280;67480;48.920;12.880;2023-02-28T05:21:34;97687.78;;;-2.54;49.83
78206;BME280;67480;48.920;12.880;2023-02-28T05:24:02;97681.19;;;-2.70;49.23
78206;BME280;67480;48.920;12.880;2023-02-28T05:26:28;97680.75;;;-2.60;49.42
78206;BME280;67480;48.920;12.880;2023-02-28T05:28:54;97680.50;;;-2.52;49.14
78206;BME280;67480;48.920;12.880;2023-02-28T05:31:20;97683.00;;;-2.70;49.73
78206;BME280;67480;48.920;12.880;2023-02-28T05:33:46;97682.97;;;-2.63;49.12
78206;BME280;67480;48.920;12.880;2023-02-28T05:36:11;97681.78;;;-2.67;49.27
78206;BME280;67480;48.920;12.880;2023-02-28T05:38:37;97691.50;;;-2.61;49.18
78206;BME280;67480;48.920;12.880;2023-02-28T05:41:09;97687.84;;;-2.67;49.22
78206;BME280;67480;48.920;12.880;2023-02-28T05:43:35;97705.84;;;-2.57;49.39
78206;BME280;67480;48.920;12.880;2023-02-28T05:46:06;97686.25;;;-2.75;49.14
78206;BME280;67480;48.920;12.880;2023-02-28T05:48:33;97694.72;;;-2.59;49.08
78206;BME280;67480;48.920;12.880;2023-02-28T05:50:59;97685.63;;;-2.70;49.39
78206;BME280;67480;48.920;12.880;2023-02-28T05:53:24;97699.00;;;-2.72;48.34
78206;BME280;67480;48.920;12.880;2023-02-28T05:55:49;97681.97;;;-2.62;49.27
78206;BME280;67480;48.920;12.880;2023-02-28T05:58:15;97691.50;;;-2.68;49.31
78206;BME280;67480;48.920;12.880;2023-02-28T06:00:40;97691.28;;;-2.66;48.61
78206;BME280;67480;48.920;12.880;2023-02-28T06:03:05;97695.94;;;-2.62;48.97
78206;BME280;67480;48.920;12.880;2023-02-28T06:05:30;97688.81;;;-2.55;48.47
78206;BME280;67480;48.920;12.880;2023-02-28T06:07:56;97700.19;;;-2.61;48.96
78206;BME280;67480;48.920;12.880;2023-02-28T06:10:21;97705.28;;;-2.66;49.03
78206;BME280;67480;48.920;12.880;2023-02-28T06:12:46;97704.41;;;-2.53;48.06
78206;BME280;67480;48.920;12.880;2023-02-28T06:15:15;97717.78;;;-2.48;48.40
78206;BME280;67480;48.920;12.880;2023-02-28T06:17:43;97711.72;;;-2.55;48.05
78206;BME280;67480;48.920;12.880;2023-02-28T06:20:09;97708.78;;;-2.40;47.81
78206;BME280;67480;48.920;12.880;2023-02-28T06:22:36;97713.34;;;-2.54;48.29
78206;BME280;67480;48.920;12.880;2023-02-28T06:25:01;97715.38;;;-2.56;48.04
78206;BME280;67480;48.920;12.880;2023-02-28T06:27:27;97724.63;;;-2.47;48.23
78206;BME280;67480;48.920;12.880;2023-02-28T06:29:55;97721.53;;;-2.37;47.80
78206;BME280;67480;48.920;12.880;2023-02-28T06:32:21;97732.50;;;-2.34;47.88
78206;BME280;67480;48.920;12.880;2023-02-28T06:34:46;97731.69;;;-2.34;48.18
78206;BME280;67480;48.920;12.880;2023-02-28T06:37:12;97730.59;;;-2.20;47.83
78206;BME280;67480;48.920;12.880;2023-02-28T06:39:37;97732.06;;;-2.30;48.24
78206;BME280;67480;48.920;12.880;2023-02-28T06:42:03;97743.09;;;-2.08;48.33
78206;BME280;67480;48.920;12.880;2023-02-28T06:44:28;97746.25;;;-1.93;47.71
78206;BME280;67480;48.920;12.880;2023-02-28T06:47:00;97742.47;;;-1.79;47.71
78206;BME280;67480;48.920;12.880;2023-02-28T06:49:28;97749.69;;;-1.67;46.55
78206;BME280;67480;48.920;12.880;2023-02-28T06:51:53;97747.13;;;-1.49;46.79
78206;BME280;67480;48.920;12.880;2023-02-28T06:54:19;97758.13;;;-1.08;45.81
78206;BME280;67480;48.920;12.880;2023-02-28T06:56:44;97762.78;;;-0.85;45.44
78206;BME280;67480;48.920;12.880;2023-02-28T06:59:09;97753.06;;;-0.91;45.72
78206;BME280;67480;48.920;12.880;2023-02-28T07:01:34;97746.09;;;-0.86;45.43
78206;BME280;67480;48.920;12.880;2023-02-28T07:04:00;97753.97;;;-0.79;44.89
78206;BME280;67480;48.920;12.880;2023-02-28T07:06:26;97748.88;;;-0.62;44.98
78206;BME280;67480;48.920;12.880;2023-02-28T07:08:52;97747.53;;;-0.34;45.21
78206;BME280;67480;48.920;12.880;2023-02-28T07:11:19;97747.19;;;-0.38;44.19
78206;BME280;67480;48.920;12.880;2023-02-28T07:13:44;97753.03;;;-0.36;44.39
78206;BME280;67480;48.920;12.880;2023-02-28T07:16:12;97741.66;;;-0.36;44.15
78206;BME280;67480;48.920;12.880;2023-02-28T07:18:37;97748.59;;;0.07;43.66
78206;BME280;67480;48.920;12.880;2023-02-28T07:21:04;97746.13;;;0.24;43.22
78206;BME280;67480;48.920;12.880;2023-02-28T07:23:30;97757.75;;;0.35;42.70
78206;BME280;67480;48.920;12.880;2023-02-28T07:25:55;97756.72;;;0.59;42.45
78206;BME280;67480;48.920;12.880;2023-02-28T07:28:20;97765.16;;;0.68;41.82
78206;BME280;67480;48.920;12.880;2023-02-28T07:30:46;97758.00;;;0.80;42.37
78206;BME280;67480;48.920;12.880;2023-02-28T07:33:11;97764.69;;;1.07;41.23
78206;BME280;67480;48.920;12.880;2023-02-28T07:35:37;97764.69;;;1.19;40.87
78206;BME280;67480;48.920;12.880;2023-02-28T07:38:02;97767.34;;;1.19;41.14
78206;BME280;67480;48.920;12.880;2023-02-28T07:40:28;97769.47;;;1.45;40.40
78206;BME280;67480;48.920;12.880;2023-02-28T07:42:53;97765.19;;;1.44;40.84
78206;BME280;67480;48.920;12.880;2023-02-28T07:45:18;97768.59;;;1.68;39.86
78206;BME280;67480;48.920;12.880;2023-02-28T07:47:44;97770.63;;;1.78;39.65
78206;BME280;67480;48.920;12.880;2023-02-28T07:50:12;97769.22;;;2.33;39.27
78206;BME280;67480;48.920;12.880;2023-02-28T07:52:38;97771.31;;;2.31;38.96
78206;BME280;67480;48.920;12.880;2023-02-28T07:55:05;97764.16;;;2.49;38.15
78206;BME280;67480;48.920;12.880;2023-02-28T07:57:31;97778.81;;;2.51;37.92
78206;BME280;67480;48.920;12.880;2023-02-28T07:59:57;97779.72;;;2.57;37.72
78206;BME280;67480;48.920;12.880;2023-02-28T08:02:22;97785.19;;;2.84;37.50
78206;BME280;67480;48.920;12.880;2023-02-28T08:04:47;97779.94;;;2.89;37.74
78206;BME280;67480;48.920;12.880;2023-02-28T08:07:14;97777.28;;;3.28;36.66
78206;BME280;67480;48.920;12.880;2023-02-28T08:09:40;97787.19;;;3.11;37.00
78206;BME280;67480;48.920;12.880;2023-02-28T08:12:06;97778.06;;;3.46;36.82
78206;BME280;67480;48.920;12.880;2023-02-28T08:14:32;97774.72;;;3.33;35.84
78206;BME280;67480;48.920;12.880;2023-02-28T08:16:57;97775.22;;;3.13;36.99
78206;BME280;67480;48.920;12.880;2023-02-28T08:19:23;97773.31;;;3.48;36.22
78206;BME280;67480;48.920;12.880;2023-02-28T08:21:48;97764.16;;;3.61;36.33
78206;BME280;67480;48.920;12.880;2023-02-28T08:24:13;97757.75;;;3.40;36.98
78206;BME280;67480;48.920;12.880;2023-02-28T08:26:39;97769.66;;;3.54;35.74
78206;BME280;67480;48.920;12.880;2023-02-28T08:29:04;97769.16;;;3.79;36.31
78206;BME280;67480;48.920;12.880;2023-02-28T08:31:29;97774.19;;;4.03;36.07
78206;BME280;67480;48.920;12.880;2023-02-28T08:33:55;97775.72;;;4.21;35.65
78206;BME280;67480;48.920;12.880;2023-02-28T08:36:24;97772.84;;;4.27;35.11
78206;BME280;67480;48.920;12.880;2023-02-28T08:38:49;97773.03;;;4.21;34.83
78206;BME280;67480;48.920;12.880;2023-02-28T08:41:14;97774.84;;;4.80;34.35
78206;BME280;67480;48.920;12.880;2023-02-28T08:43:40;97776.66;;;4.09;34.53
78206;BME280;67480;48.920;12.880;2023-02-28T08:46:06;97785.22;;;4.71;34.33
78206;BME280;67480;48.920;12.880;2023-02-28T08:48:33;97781.00;;;4.80;34.95
78206;BME280;67480;48.920;12.880;2023-02-28T08:51:04;97777.63;;;4.90;33.91
78206;BME280;67480;48.920;12.880;2023-02-28T08:53:30;97783.25;;;4.99;33.49
78206;BME280;67480;48.920;12.880;2023-02-28T08:56:07;97784.41;;;5.61;33.07
78206;BME280;67480;48.920;12.880;2023-02-28T08:58:33;97778.94;;;5.93;32.85
78206;BME280;67480;48.920;12.880;2023-02-28T09:01:00;97783.31;;;6.36;32.34
78206;BME280;67480;48.920;12.880;2023-02-28T09:03:25;97785.44;;;6.44;32.38
78206;BME280;67480;48.920;12.880;2023-02-28T09:05:57;97784.63;;;6.33;32.18
78206;BME280;67480;48.920;12.880;2023-02-28T09:08:24;97783.84;;;6.58;32.03
78206;BME280;67480;48.920;12.880;2023-02-28T09:10:50;97779.03;;;6.55;32.24
78206;BME280;67480;48.920;12.880;2023-02-28T09:13:16;97777.13;;;6.15;31.87
78206;BME280;67480;48.920;12.880;2023-02-28T09:15:41;97789.97;;;6.33;31.90
78206;BME280;67480;48.920;12.880;2023-02-28T09:18:06;97793.94;;;6.10;32.05
78206;BME280;67480;48.920;12.880;2023-02-28T09:20:32;97791.09;;;6.58;31.52
78206;BME280;67480;48.920;12.880;2023-02-28T09:22:57;97784.91;;;7.03;31.76
78206;BME280;67480;48.920;12.880;2023-02-28T09:25:22;97782.75;;;7.06;31.40
78206;BME280;67480;48.920;12.880;2023-02-28T09:27:48;97794.72;;;7.49;31.54
78206;BME280;67480;48.920;12.880;2023-02-28T09:30:13;97800.69;;;7.96;31.00
78206;BME280;67480;48.920;12.880;2023-02-28T09:32:39;97798.69;;;7.52;30.54
78206;BME280;67480;48.920;12.880;2023-02-28T09:35:05;97797.09;;;7.56;30.40
78206;BME280;67480;48.920;12.880;2023-02-28T09:37:30;97804.66;;;7.33;31.53
78206;BME280;67480;48.920;12.880;2023-02-28T09:39:56;97813.53;;;8.04;30.64
78206;BME280;67480;48.920;12.880;2023-02-28T09:42:28;97812.25;;;7.81;29.77
78206;BME280;67480;48.920;12.880;2023-02-28T09:44:56;97815.22;;;7.85;29.96
78206;BME280;67480;48.920;12.880;2023-02-28T09:47:39;97811.69;;;8.44;29.48
78206;BME280;67480;48.920;12.880;2023-02-28T09:50:35;97807.38;;;8.48;30.36
78206;BME280;67480;48.920;12.880;2023-02-28T09:53:08;97814.84;;;8.51;29.67
78206;BME280;67480;48.920;12.880;2023-02-28T09:55:39;97808.97;;;8.49;29.26
78206;BME280;67480;48.920;12.880;2023-02-28T09:58:18;97811.81;;;8.24;29.47
78206;BME280;67480;48.920;12.880;2023-02-28T10:00:56;97820.19;;;8.57;29.35
78206;BME280;67480;48.920;12.880;2023-02-28T10:03:43;97820.94;;;8.97;29.48
78206;BME280;67480;48.920;12.880;2023-02-28T10:06:16;97816.25;;;9.13;28.24
78206;BME280;67480;48.920;12.880;2023-02-28T10:12:05;97831.84;;;9.11;28.59
78206;BME280;67480;48.920;12.880;2023-02-28T10:14:33;97813.00;;;9.93;27.28
78206;BME280;67480;48.920;12.880;2023-02-28T10:17:15;97817.31;;;10.32;26.79
78206;BME280;67480;48.920;12.880;2023-02-28T10:22:22;97824.66;;;10.46;26.96
78206;BME280;67480;48.920;12.880;2023-02-28T10:24:53;97819.53;;;11.01;25.91
78206;BME280;67480;48.920;12.880;2023-02-28T10:27:24;97828.56;;;11.38;25.53
78206;BME280;67480;48.920;12.880;2023-02-28T10:29:52;97823.41;;;10.95;26.07
78206;BME280;67480;48.920;12.880;2023-02-28T10:32:21;97825.19;;;9.62;27.20
78206;BME280;67480;48.920;12.880;2023-02-28T10:34:52;97827.63;;;10.63;27.28
78206;BME280;67480;48.920;12.880;2023-02-28T10:37:20;97833.78;;;11.02;25.39
78206;BME280;67480;48.920;12.880;2023-02-28T10:39:46;97839.34;;;11.24;26.86
78206;BME280;67480;48.920;12.880;2023-02-28T10:42:26;97833.06;;;11.43;26.21
78206;BME280;67480;48.920;12.880;2023-02-28T10:47:48;97836.50;;;11.76;25.42
78206;BME280;67480;48.920;12.880;2023-02-28T10:52:53;97826.38;;;10.75;26.12
78206;BME280;67480;48.920;12.880;2023-02-28T10:55:24;97824.34;;;10.66;26.67
78206;BME280;67480;48.920;12.880;2023-02-28T10:57:51;97824.44;;;11.13;26.72
78206;BME280;67480;48.920;12.880;2023-02-28T11:00:24;97830.97;;;11.40;26.62
78206;BME280;67480;48.920;12.880;2023-02-28T11:02:52;97822.00;;;11.44;26.42
78206;BME280;67480;48.920;12.880;2023-02-28T11:05:28;97821.94;;;11.03;26.44
78206;BME280;67480;48.920;12.880;2023-02-28T11:07:56;97818.72;;;11.75;25.87
78206;BME280;67480;48.920;12.880;2023-02-28T11:10:26;97827.72;;;12.12;25.82
78206;BME280;67480;48.920;12.880;2023-02-28T11:12:55;97824.25;;;12.71;25.37
78206;BME280;67480;48.920;12.880;2023-02-28T11:15:23;97820.75;;;12.93;24.91
78206;BME280;67480;48.920;12.880;2023-02-28T11:18:14;97821.94;;;12.42;25.37
78206;BME280;67480;48.920;12.880;2023-02-28T11:20:49;97812.44;;;12.44;25.86
78206;BME280;67480;48.920;12.880;2023-02-28T11:23:16;97813.72;;;12.10;25.30
78206;BME280;67480;48.920;12.880;2023-02-28T11:25:47;97815.22;;;12.03;25.44
78206;BME280;67480;48.920;12.880;2023-02-28T11:28:35;97813.59;;;12.88;25.25
78206;BME280;67480;48.920;12.880;2023-02-28T11:33:51;97811.09;;;12.05;26.21
78206;BME280;67480;48.920;12.880;2023-02-28T11:36:23;97813.09;;;11.99;26.26
78206;BME280;67480;48.920;12.880;2023-02-28T11:38:54;97804.63;;;11.92;26.38
78206;BME280;67480;48.920;12.880;2023-02-28T11:47:34;97814.28;;;13.03;24.40
78206;BME280;67480;48.920;12.880;2023-02-28T11:50:25;97806.38;;;13.29;24.57
78206;BME280;67480;48.920;12.880;2023-02-28T11:53:01;97812.91;;;12.24;25.47
78206;BME280;67480;48.920;12.880;2023-02-28T11:58:17;97805.31;;;11.42;27.02
78206;BME280;67480;48.920;12.880;2023-02-28T12:01:15;97801.81;;;12.11;26.82
78206;BME280;67480;48.920;12.880;2023-02-28T12:06:57;97804.66;;;12.88;26.01
78206;BME280;67480;48.920;12.880;2023-02-28T12:15:13;97795.81;;;10.84;28.19
78206;BME280;67480;48.920;12.880;2023-02-28T12:23:22;97795.31;;;9.39;29.57
78206;BME280;67480;48.920;12.880;2023-02-28T12:28:19;97790.25;;;11.55;27.51
78206;BME280;67480;48.920;12.880;2023-02-28T12:30:53;97789.31;;;12.75;26.50
78206;BME280;67480;48.920;12.880;2023-02-28T12:33:22;97788.56;;;13.05;26.74
78206;BME280;67480;48.920;12.880;2023-02-28T12:35:56;97784.13;;;13.81;25.13
78206;BME280;67480;48.920;12.880;2023-02-28T12:40:54;97786.13;;;14.33;24.20
78206;BME280;67480;48.920;12.880;2023-02-28T12:43:20;97786.75;;;13.55;24.87
78206;BME280;67480;48.920;12.880;2023-02-28T12:45:58;97784.94;;;13.10;25.42
78206;BME280;67480;48.920;12.880;2023-02-28T12:48:29;97790.94;;;13.30;25.07
78206;BME280;67480;48.920;12.880;2023-02-28T12:50:57;97790.66;;;13.40;24.53
78206;BME280;67480;48.920;12.880;2023-02-28T12:53:31;97788.78;;;14.07;24.22
78206;BME280;67480;48.920;12.880;2023-02-28T12:57:06;97778.19;;;13.61;25.28
78206;BME280;67480;48.920;12.880;2023-02-28T12:59:27;97782.88;;;13.87;25.33
78206;BME280;67480;48.920;12.880;2023-02-28T13:04:49;97783.78;;;13.74;24.54
78206;BME280;67480;48.920;12.880;2023-02-28T13:10:08;97787.66;;;13.41;25.33
78206;BME280;67480;48.920;12.880;2023-02-28T13:12:34;97783.25;;;13.23;25.76
78206;BME280;67480;48.920;12.880;2023-02-28T13:15:16;97786.84;;;13.10;25.45
78206;BME280;67480;48.920;12.880;2023-02-28T13:17:49;97785.34;;;13.57;25.91
78206;BME280;67480;48.920;12.880;2023-02-28T13:20:27;97774.28;;;13.94;25.07
78206;BME280;67480;48.920;12.880;2023-02-28T13:22:55;97782.34;;;13.68;25.12
78206;BME280;67480;48.920;12.880;2023-02-28T13:27:51;97787.31;;;12.58;26.43
78206;BME280;67480;48.920;12.880;2023-02-28T13:33:32;97780.66;;;12.86;26.23
78206;BME280;67480;48.920;12.880;2023-02-28T13:38:35;97777.72;;;12.74;26.00
78206;BME280;67480;48.920;12.880;2023-02-28T13:57:26;97791.78;;;12.40;26.54
78206;BME280;67480;48.920;12.880;2023-02-28T14:02:52;97794.53;;;12.12;27.48
78206;BME280;67480;48.920;12.880;2023-02-28T14:05:22;97795.53;;;12.16;26.57
78206;BME280;67480;48.920;12.880;2023-02-28T14:07:57;97795.94;;;12.46;27.06
78206;BME280;67480;48.920;12.880;2023-02-28T14:10:27;97790.41;;;12.14;26.72
78206;BME280;67480;48.920;12.880;2023-02-28T14:12:58;97791.94;;;11.79;27.95
78206;BME280;67480;48.920;12.880;2023-02-28T14:15:40;97794.00;;;12.24;26.92
78206;BME280;67480;48.920;12.880;2023-02-28T14:18:19;97791.06;;;11.56;27.14
78206;BME280;67480;48.920;12.880;2023-02-28T14:20:47;97794.75;;;11.88;27.66
78206;BME280;67480;48.920;12.880;2023-02-28T14:38:53;97781.13;;;10.77;28.29
78206;BME280;67480;48.920;12.880;2023-02-28T14:41:35;97787.78;;;10.65;28.75
78206;BME280;67480;48.920;12.880;2023-02-28T14:44:12;97790.41;;;10.13;28.91
78206;BME280;67480;48.920;12.880;2023-02-28T14:46:39;97780.38;;;10.00;30.23
78206;BME280;67480;48.920;12.880;2023-02-28T14:49:07;97785.25;;;10.17;29.71
78206;BME280;67480;48.920;12.880;2023-02-28T14:51:37;97790.91;;;10.15;30.07
78206;BME280;67480;48.920;12.880;2023-02-28T14:54:03;97781.91;;;10.44;30.02
78206;BME280;67480;48.920;12.880;2023-02-28T14:56:37;97782.56;;;10.36;29.03
78206;BME280;67480;48.920;12.880;2023-02-28T14:59:04;97781.97;;;9.82;30.63
78206;BME280;67480;48.920;12.880;2023-02-28T15:01:30;97792.44;;;10.03;30.32
78206;BME280;67480;48.920;12.880;2023-02-28T15:04:05;97792.53;;;9.49;30.82
78206;BME280;67480;48.920;12.880;2023-02-28T15:06:31;97786.66;;;9.47;31.61
78206;BME280;67480;48.920;12.880;2023-02-28T15:09:11;97783.69;;;9.49;30.44